Time;durP1;ratioP1;P1;durP2;ratioP2;P2;SDS_P1;SDS_P2;PMS_P1;PMS_P2;Temp;Humidity;BMP_temperature;BMP_pressure;BME280_temperature;BME280_humidity;BME280_pressure;Samples;Min_cycle;Max_cycle;Signal;HPM_P1;HPM_P2
2023/09/22 00:00:43;;;;;;;21.27;11.40;;;;;;;;;;2092941;28;20020;-73
2023/09/22 00:02:04;;;;;;;17.20;10.43;;;;;;;;;;2101009;28;20097;-73
2023/09/22 00:03:31;;;;;;;23.00;11.88;;;;;;;;;;2095175;28;20035;-72
2023/09/22 00:04:52;;;;;;;19.48;12.95;;;;;;;;;;2087388;28;20412;-73
2023/09/22 00:06:14;;;;;;;18.30;12.00;;;;;;;;;;2084609;28;20036;-73
2023/09/22 00:07:35;;;;;;;21.42;12.35;;;;;;;;;;2091522;28;20024;-73
2023/09/22 00:08:56;;;;;;;21.38;11.70;;;;;;;;;;2096199;28;20070;-73
2023/09/22 00:10:17;;;;;;;20.25;12.23;;;;;;;;;;2090565;28;20036;-73
2023/09/22 00:11:38;;;;;;;21.70;11.88;;;;;;;;;;2087814;28;20029;-73
2023/09/22 00:12:59;;;;;;;20.95;11.50;;;;;;;;;;2093123;28;20024;-73
2023/09/22 00:14:20;;;;;;;17.80;11.05;;;;;;;;;;2090670;28;20033;-73
2023/09/22 00:15:41;;;;;;;22.48;12.15;;;;;;;;;;2088771;28;20033;-73
2023/09/22 00:17:02;;;;;;;23.02;12.10;;;;;;;;;;2087284;28;20041;-73
2023/09/22 00:18:23;;;;;;;21.08;11.25;;;;;;;;;;2084308;28;20037;-72
2023/09/22 00:19:45;;;;;;;19.15;11.05;;;;;;;;;;2084848;28;20033;-73
2023/09/22 00:21:06;;;;;;;19.55;11.40;;;;;;;;;;2093578;28;20028;-72
2023/09/22 00:22:27;;;;;;;20.42;11.45;;;;;;;;;;2095098;28;20029;-73
2023/09/22 00:23:48;;;;;;;21.33;12.05;;;;;;;;;;2094910;28;20036;-72
2023/09/22 00:25:10;;;;;;;19.90;11.23;;;;;;;;;;2089557;28;20424;-72
2023/09/22 00:26:31;;;;;;;21.58;11.85;;;;;;;;;;2091649;28;20029;-72
2023/09/22 00:27:52;;;;;;;17.23;10.73;;;;;;;;;;2093885;28;20032;-72
2023/09/22 00:29:12;;;;;;;18.05;11.02;;;;;;;;;;2095156;28;20350;-73
2023/09/22 00:30:33;;;;;;;21.63;10.20;;;;;;;;;;2096038;28;20086;-73
2023/09/22 00:31:55;;;;;;;19.90;11.45;;;;;;;;;;2095877;28;20029;-73
2023/09/22 00:33:16;;;;;;;24.38;11.88;;;;;;;;;;2092623;28;20032;-72
2023/09/22 00:34:38;;;;;;;21.05;10.80;;;;;;;;;;2096267;28;20029;-72
2023/09/22 00:36:02;;;;;;;24.48;11.63;;;;;;;;;;2096341;28;20029;-72
2023/09/22 00:37:23;;;;;;;19.50;10.48;;;;;;;;;;2085800;28;20029;-77
2023/09/22 00:38:44;;;;;;;24.13;11.50;;;;;;;;;;2087350;28;20029;-77
2023/09/22 00:40:05;;;;;;;18.63;10.43;;;;;;;;;;2095763;28;20032;-77
2023/09/22 00:41:26;;;;;;;19.13;11.57;;;;;;;;;;2093392;28;20102;-77
2023/09/22 00:43:04;;;;;;;18.80;10.20;;;;;;;;;;2088106;28;20134;-77
2023/09/22 00:44:25;;;;;;;17.20;9.40;;;;;;;;;;2097760;28;20032;-77
2023/09/22 00:45:47;;;;;;;16.67;9.27;;;;;;;;;;2103727;28;20400;-77
2023/09/22 00:47:09;;;;;;;20.33;10.00;;;;;;;;;;2097440;28;20032;-76
2023/09/22 00:48:34;;;;;;;19.70;10.60;;;;;;;;;;2092991;28;20044;-77
2023/09/22 00:49:55;;;;;;;18.55;9.98;;;;;;;;;;2097897;28;20036;-77
2023/09/22 00:51:19;;;;;;;14.80;9.77;;;;;;;;;;2089885;28;20068;-77
2023/09/22 00:52:41;;;;;;;18.58;10.00;;;;;;;;;;2087711;28;20408;-77
2023/09/22 00:54:02;;;;;;;15.27;10.25;;;;;;;;;;2088293;28;20436;-78
2023/09/22 00:55:23;;;;;;;18.25;10.35;;;;;;;;;;2088381;28;20021;-77
2023/09/22 00:56:45;;;;;;;15.40;10.27;;;;;;;;;;2093284;28;20404;-76
2023/09/22 00:58:06;;;;;;;16.25;9.75;;;;;;;;;;2085609;28;20036;-76
2023/09/22 00:59:27;;;;;;;16.23;9.98;;;;;;;;;;2085618;28;20041;-77
2023/09/22 01:00:49;;;;;;;16.48;10.00;;;;;;;;;;2086857;28;20463;-77
2023/09/22 01:02:11;;;;;;;17.08;9.32;;;;;;;;;;2093136;28;20117;-76
2023/09/22 01:03:32;;;;;;;19.25;10.43;;;;;;;;;;2097333;28;20032;-76
2023/09/22 01:04:53;;;;;;;19.13;9.88;;;;;;;;;;2087264;28;20036;-77
2023/09/22 01:06:14;;;;;;;19.45;9.73;;;;;;;;;;2093208;28;20029;-77
2023/09/22 01:07:35;;;;;;;17.17;10.00;;;;;;;;;;2087536;28;20021;-77
2023/09/22 01:08:56;;;;;;;18.42;9.80;;;;;;;;;;2084876;28;20419;-77
2023/09/22 01:10:17;;;;;;;18.60;10.00;;;;;;;;;;2085172;28;20461;-77
2023/09/22 01:11:39;;;;;;;18.10;9.52;;;;;;;;;;2093559;28;20028;-77
2023/09/22 01:13:00;;;;;;;17.42;9.32;;;;;;;;;;2093809;28;20044;-77
2023/09/22 01:14:21;;;;;;;15.98;10.57;;;;;;;;;;2095982;28;20038;-77
2023/09/22 01:15:42;;;;;;;16.27;9.73;;;;;;;;;;2096565;28;20040;-77
2023/09/22 01:17:03;;;;;;;19.60;10.63;;;;;;;;;;2084258;28;20029;-77
2023/09/22 01:18:25;;;;;;;20.98;10.80;;;;;;;;;;2085682;28;20045;-77
2023/09/22 01:19:45;;;;;;;18.93;10.23;;;;;;;;;;2083321;28;20519;-77
2023/09/22 01:21:07;;;;;;;20.10;10.52;;;;;;;;;;2090652;28;20445;-76
2023/09/22 01:22:28;;;;;;;19.77;10.85;;;;;;;;;;2093530;28;20040;-77
2023/09/22 01:23:49;;;;;;;20.42;9.60;;;;;;;;;;2095961;28;20059;-77
2023/09/22 01:25:10;;;;;;;16.42;9.98;;;;;;;;;;2095896;28;20020;-76
2023/09/22 01:26:31;;;;;;;21.50;10.57;;;;;;;;;;2095526;28;20028;-77
2023/09/22 01:27:52;;;;;;;18.83;9.63;;;;;;;;;;2093109;28;20491;-77
2023/09/22 01:29:13;;;;;;;21.15;10.93;;;;;;;;;;2092312;28;20036;-77
2023/09/22 01:30:34;;;;;;;20.70;10.90;;;;;;;;;;2090773;28;20025;-77
2023/09/22 01:31:55;;;;;;;17.52;9.25;;;;;;;;;;2091199;28;20025;-77
2023/09/22 01:33:16;;;;;;;18.63;10.40;;;;;;;;;;2090070;28;20047;-77
2023/09/22 01:34:37;;;;;;;17.88;10.75;;;;;;;;;;2087640;28;20072;-76
2023/09/22 01:35:58;;;;;;;19.75;11.10;;;;;;;;;;2093109;28;20029;-76
2023/09/22 01:37:23;;;;;;;18.98;10.07;;;;;;;;;;2084886;28;20036;-77
2023/09/22 01:38:44;;;;;;;16.23;10.52;;;;;;;;;;2080183;28;20064;-77
2023/09/22 01:40:05;;;;;;;18.25;10.13;;;;;;;;;;2085051;28;20040;-77
2023/09/22 01:41:27;;;;;;;18.80;10.18;;;;;;;;;;2080107;28;20523;-76
2023/09/22 01:42:48;;;;;;;19.45;10.18;;;;;;;;;;2085999;28;20044;-77
2023/09/22 01:44:10;;;;;;;18.42;9.70;;;;;;;;;;2079625;28;20076;-77
2023/09/22 01:45:31;;;;;;;;;;;;;;;;;;2081338;28;20033;-77
2023/09/22 01:46:52;;;;;;;17.92;9.75;;;;;;;;;;2088220;28;19954;-75
2023/09/22 01:48:13;;;;;;;17.15;9.75;;;;;;;;;;2080325;28;20104;-74
2023/09/22 01:49:34;;;;;;;22.20;10.30;;;;;;;;;;2074822;28;20089;-74
2023/09/22 01:50:59;;;;;;;20.17;11.10;;;;;;;;;;2080599;28;20025;-75
2023/09/22 01:52:20;;;;;;;20.48;9.88;;;;;;;;;;2086040;28;20033;-75
2023/09/22 01:53:41;;;;;;;18.52;9.88;;;;;;;;;;2088129;28;20040;-74
2023/09/22 01:55:01;;;;;;;20.42;11.02;;;;;;;;;;2088554;28;20025;-75
2023/09/22 01:56:22;;;;;;;21.17;10.13;;;;;;;;;;2088369;28;20029;-74
2023/09/22 01:57:46;;;;;;;20.63;10.50;;;;;;;;;;2083799;28;20033;-75
2023/09/22 01:59:07;;;;;;;21.45;12.13;;;;;;;;;;2077516;28;20311;-75
2023/09/22 02:00:28;;;;;;;18.77;10.38;;;;;;;;;;2090763;28;20097;-75
2023/09/22 02:01:49;;;;;;;23.27;10.85;;;;;;;;;;2092862;28;20033;-75
2023/09/22 02:03:10;;;;;;;18.48;10.40;;;;;;;;;;2078941;28;20390;-74
2023/09/22 02:04:31;;;;;;;24.00;10.95;;;;;;;;;;2078378;28;20077;-74
2023/09/22 02:05:52;;;;;;;22.15;10.70;;;;;;;;;;2077704;28;20041;-74
2023/09/22 02:07:12;;;;;;;25.00;10.70;;;;;;;;;;2091941;28;20404;-75
2023/09/22 02:08:33;;;;;;;20.88;10.50;;;;;;;;;;2093989;28;20025;-75
2023/09/22 02:09:54;;;;;;;20.70;10.90;;;;;;;;;;2095856;28;20033;-74
2023/09/22 02:11:16;;;;;;;21.95;11.27;;;;;;;;;;2095639;28;20024;-74
2023/09/22 02:12:37;;;;;;;22.98;11.07;;;;;;;;;;2088807;28;20035;-74
2023/09/22 02:13:59;;;;;;;21.25;9.85;;;;;;;;;;2088318;28;20040;-74
2023/09/22 02:15:20;;;;;;;17.10;9.80;;;;;;;;;;2088647;28;20029;-75
2023/09/22 02:16:41;;;;;;;22.75;12.13;;;;;;;;;;2090647;28;20485;-74
2023/09/22 02:18:02;;;;;;;23.20;11.60;;;;;;;;;;2080424;28;20096;-75
2023/09/22 02:19:23;;;;;;;21.73;10.32;;;;;;;;;;2078029;28;20096;-74
2023/09/22 02:20:44;;;;;;;25.73;10.48;;;;;;;;;;2074538;28;20048;-75
2023/09/22 02:22:05;;;;;;;22.42;10.80;;;;;;;;;;2088438;28;20032;-74
2023/09/22 02:23:26;;;;;;;22.80;9.43;;;;;;;;;;2089957;28;20044;-74
2023/09/22 02:24:47;;;;;;;23.02;10.88;;;;;;;;;;2097927;28;20353;-74
2023/09/22 02:26:08;;;;;;;24.83;11.35;;;;;;;;;;2072464;28;20041;-74
2023/09/22 02:27:29;;;;;;;26.17;11.60;;;;;;;;;;2082063;28;20025;-74
2023/09/22 02:28:51;;;;;;;22.33;10.20;;;;;;;;;;2094125;28;20027;-75
2023/09/22 02:30:14;;;;;;;21.65;10.57;;;;;;;;;;2096613;28;20396;-74
2023/09/22 02:31:35;;;;;;;22.95;11.13;;;;;;;;;;2096131;28;20440;-75
2023/09/22 02:32:56;;;;;;;24.58;11.20;;;;;;;;;;2086899;28;20060;-75
2023/09/22 02:34:20;;;;;;;22.92;11.10;;;;;;;;;;2097014;28;20462;-74
2023/09/22 02:35:41;;;;;;;25.58;11.43;;;;;;;;;;2096272;28;20048;-74
2023/09/22 02:37:02;;;;;;;21.38;10.25;;;;;;;;;;2098559;28;20496;-74
2023/09/22 02:38:23;;;;;;;23.75;11.10;;;;;;;;;;2094100;28;20488;-75
2023/09/22 02:39:45;;;;;;;20.73;10.60;;;;;;;;;;2097078;28;20045;-74
2023/09/22 02:41:06;;;;;;;21.83;11.63;;;;;;;;;;2097924;28;20024;-74
2023/09/22 02:42:28;;;;;;;25.75;10.88;;;;;;;;;;2098726;28;20082;-74
2023/09/22 02:43:48;;;;;;;27.83;11.27;;;;;;;;;;2096778;28;20105;-75
2023/09/22 02:45:10;;;;;;;23.25;11.73;;;;;;;;;;2095718;28;20032;-74
2023/09/22 02:46:31;;;;;;;27.05;11.10;;;;;;;;;;2097481;28;20029;-75
2023/09/22 02:47:53;;;;;;;26.58;10.98;;;;;;;;;;2088343;28;20022;-74
2023/09/22 02:49:14;;;;;;;29.58;11.82;;;;;;;;;;2091450;28;20368;-74
2023/09/22 02:50:34;;;;;;;21.42;11.35;;;;;;;;;;2092793;28;20064;-74
2023/09/22 02:51:56;;;;;;;21.98;10.57;;;;;;;;;;2095036;28;20032;-74
2023/09/22 02:53:17;;;;;;;25.75;10.75;;;;;;;;;;2094155;28;20029;-75
2023/09/22 02:54:38;;;;;;;22.80;11.25;;;;;;;;;;2094912;28;20028;-75
2023/09/22 02:56:04;;;;;;;25.65;11.82;;;;;;;;;;2085312;28;20485;-74
2023/09/22 02:57:25;;;;;;;25.48;11.30;;;;;;;;;;2096685;28;20036;-73
2023/09/22 02:58:46;;;;;;;26.98;11.68;;;;;;;;;;2095727;28;20017;-73
2023/09/22 03:00:11;;;;;;;23.63;12.68;;;;;;;;;;2096334;28;20044;-74
2023/09/22 03:01:34;;;;;;;24.38;11.27;;;;;;;;;;2095288;28;20041;-73
2023/09/22 03:02:56;;;;;;;21.67;11.05;;;;;;;;;;2092170;28;20393;-74
2023/09/22 03:04:17;;;;;;;20.42;10.90;;;;;;;;;;2095954;28;20033;-74
2023/09/22 03:05:38;;;;;;;26.02;10.82;;;;;;;;;;2097142;28;20128;-73
2023/09/22 03:06:58;;;;;;;23.08;11.40;;;;;;;;;;2095536;28;20392;-74
2023/09/22 03:08:19;;;;;;;23.02;10.52;;;;;;;;;;2094947;28;20506;-73
2023/09/22 03:09:40;;;;;;;24.60;11.32;;;;;;;;;;2096577;28;20040;-74
2023/09/22 03:11:01;;;;;;;25.58;10.85;;;;;;;;;;2101557;28;20082;-74
2023/09/22 03:12:22;;;;;;;23.17;11.90;;;;;;;;;;2099343;28;20032;-73
2023/09/22 03:13:43;;;;;;;26.10;11.20;;;;;;;;;;2095877;28;20471;-74
2023/09/22 03:15:05;;;;;;;23.02;10.90;;;;;;;;;;2094919;28;20033;-74
2023/09/22 03:16:29;;;;;;;30.02;11.30;;;;;;;;;;2100596;28;20039;-74
2023/09/22 03:17:50;;;;;;;25.77;12.00;;;;;;;;;;2095237;28;20403;-74
2023/09/22 03:19:12;;;;;;;22.02;10.50;;;;;;;;;;2088966;28;20730;-74
2023/09/22 03:20:32;;;;;;;25.23;11.95;;;;;;;;;;2096588;28;20032;-73
2023/09/22 03:21:53;;;;;;;25.85;11.27;;;;;;;;;;2096086;28;20040;-75
2023/09/22 03:23:15;;;;;;;26.90;11.10;;;;;;;;;;2092368;28;20361;-74
2023/09/22 03:24:36;;;;;;;20.33;9.73;;;;;;;;;;2094367;28;20039;-74
2023/09/22 03:25:56;;;;;;;23.40;10.10;;;;;;;;;;2102696;28;20031;-74
2023/09/22 03:27:17;;;;;;;23.05;11.45;;;;;;;;;;2102067;28;20373;-74
2023/09/22 03:28:38;;;;;;;25.30;11.02;;;;;;;;;;2095918;28;20086;-74
2023/09/22 03:29:59;;;;;;;23.73;10.70;;;;;;;;;;2097017;28;20040;-74
2023/09/22 03:31:20;;;;;;;18.45;10.85;;;;;;;;;;2095456;28;20480;-74
2023/09/22 03:32:41;;;;;;;22.75;11.07;;;;;;;;;;2096955;28;20059;-74
2023/09/22 03:34:02;;;;;;;18.80;10.82;;;;;;;;;;2095049;28;20440;-74
2023/09/22 03:35:23;;;;;;;22.73;10.55;;;;;;;;;;2097436;28;20032;-74
2023/09/22 03:36:44;;;;;;;21.35;10.27;;;;;;;;;;2094691;28;20039;-74
2023/09/22 03:38:09;;;;;;;21.75;10.93;;;;;;;;;;2095755;28;20028;-74
2023/09/22 03:39:32;;;;;;;26.23;11.52;;;;;;;;;;2087554;28;20038;-74
2023/09/22 03:40:56;;;;;;;19.15;9.70;;;;;;;;;;2095353;28;20041;-74
2023/09/22 03:42:17;;;;;;;19.25;10.43;;;;;;;;;;2092783;28;20032;-74
2023/09/22 03:43:38;;;;;;;23.80;11.40;;;;;;;;;;2092340;28;20033;-74
2023/09/22 03:44:58;;;;;;;22.35;9.45;;;;;;;;;;2097214;28;20029;-73
2023/09/22 03:46:19;;;;;;;18.70;10.25;;;;;;;;;;2094950;28;20392;-74
2023/09/22 03:47:40;;;;;;;18.88;10.13;;;;;;;;;;2096127;28;20029;-74
2023/09/22 03:49:03;;;;;;;20.85;11.05;;;;;;;;;;2096828;28;20033;-74
2023/09/22 03:50:24;;;;;;;23.05;11.27;;;;;;;;;;2095929;28;20040;-74
2023/09/22 03:51:45;;;;;;;18.35;10.52;;;;;;;;;;2099361;28;20392;-74
2023/09/22 03:53:06;;;;;;;21.15;10.88;;;;;;;;;;2102769;28;20036;-74
2023/09/22 03:54:27;;;;;;;20.95;10.73;;;;;;;;;;2091423;28;20028;-74
2023/09/22 03:55:48;;;;;;;20.90;9.68;;;;;;;;;;2089109;28;20063;-74
2023/09/22 03:57:10;;;;;;;20.92;10.52;;;;;;;;;;2108843;28;20042;-73
2023/09/22 03:58:30;;;;;;;22.15;10.48;;;;;;;;;;2098892;28;20460;-74
2023/09/22 03:59:51;;;;;;;18.83;10.55;;;;;;;;;;2088263;28;20072;-74
2023/09/22 04:01:12;;;;;;;17.70;10.60;;;;;;;;;;2089515;28;20037;-74
2023/09/22 04:02:34;;;;;;;18.58;9.75;;;;;;;;;;2100203;28;20028;-74
2023/09/22 04:03:55;;;;;;;18.85;9.48;;;;;;;;;;2095259;28;20511;-73
2023/09/22 04:05:15;;;;;;;21.13;10.43;;;;;;;;;;2097388;28;20055;-74
2023/09/22 04:06:36;;;;;;;20.45;10.27;;;;;;;;;;2094258;28;20040;-74
2023/09/22 04:07:57;;;;;;;19.23;9.77;;;;;;;;;;2095578;28;20028;-78
2023/09/22 04:09:18;;;;;;;18.95;10.45;;;;;;;;;;2086603;28;20036;-76
2023/09/22 04:10:41;;;;;;;19.23;10.07;;;;;;;;;;2078423;28;20038;-77
2023/09/22 04:12:02;;;;;;;22.30;10.13;;;;;;;;;;2095442;28;20044;-78
2023/09/22 04:13:27;;;;;;;20.02;10.20;;;;;;;;;;2096088;28;20032;-78
2023/09/22 04:14:47;;;;;;;18.58;9.68;;;;;;;;;;2097793;28;20429;-78
2023/09/22 04:16:08;;;;;;;16.55;9.63;;;;;;;;;;2097237;28;20032;-78
2023/09/22 04:17:31;;;;;;;16.45;9.55;;;;;;;;;;2095766;28;20070;-78
2023/09/22 04:18:54;;;;;;;17.00;8.85;;;;;;;;;;2096094;28;20059;-77
2023/09/22 04:20:26;;;;;;;16.05;9.70;;;;;;;;;;2095681;28;20032;-78
2023/09/22 04:21:48;;;;;;;15.82;8.80;;;;;;;;;;2098049;28;20162;-77
2023/09/22 04:23:09;;;;;;;16.73;9.20;;;;;;;;;;2090764;28;20035;-78
2023/09/22 04:24:34;;;;;;;17.30;9.27;;;;;;;;;;2096906;28;20499;-77
2023/09/22 04:25:59;;;;;;;15.80;9.05;;;;;;;;;;2100495;28;20040;-77
2023/09/22 04:27:20;;;;;;;15.60;9.10;;;;;;;;;;2097191;28;20043;-77
2023/09/22 04:28:41;;;;;;;14.98;8.93;;;;;;;;;;2104697;28;20043;-78
2023/09/22 04:30:03;;;;;;;15.02;9.10;;;;;;;;;;2103719;28;20436;-78
2023/09/22 04:31:25;;;;;;;18.90;9.55;;;;;;;;;;2102558;28;20361;-78
2023/09/22 04:32:45;;;;;;;14.85;8.98;;;;;;;;;;2092546;28;20024;-79
2023/09/22 04:34:07;;;;;;;16.92;9.20;;;;;;;;;;2097301;28;20033;-78
2023/09/22 04:35:28;;;;;;;15.43;8.68;;;;;;;;;;2095674;28;20189;-78
2023/09/22 04:36:49;;;;;;;13.38;9.65;;;;;;;;;;2092605;28;20427;-78
2023/09/22 04:38:10;;;;;;;16.02;9.43;;;;;;;;;;2094997;28;20033;-77
2023/09/22 04:39:31;;;;;;;17.10;9.23;;;;;;;;;;2094826;28;20047;-75
2023/09/22 04:40:56;;;;;;;13.90;8.15;;;;;;;;;;2094776;28;20093;-76
2023/09/22 04:42:17;;;;;;;17.08;9.35;;;;;;;;;;2096661;28;20446;-76
2023/09/22 04:43:38;;;;;;;14.82;8.52;;;;;;;;;;2094786;28;20034;-76
2023/09/22 04:44:59;;;;;;;15.07;9.02;;;;;;;;;;2102718;28;20043;-76
2023/09/22 04:46:20;;;;;;;16.83;8.95;;;;;;;;;;2111274;28;20079;-76
2023/09/22 04:47:41;;;;;;;18.48;8.68;;;;;;;;;;2100568;28;20020;-76
2023/09/22 04:49:02;;;;;;;16.25;8.02;;;;;;;;;;2096296;28;20075;-78
2023/09/22 04:50:23;;;;;;;22.20;10.05;;;;;;;;;;2093555;28;20134;-77
2023/09/22 04:51:43;;;;;;;15.60;8.95;;;;;;;;;;2083771;28;20021;-77
2023/09/22 04:53:05;;;;;;;15.63;8.68;;;;;;;;;;2096050;28;20438;-78
2023/09/22 04:54:26;;;;;;;15.30;8.27;;;;;;;;;;2098597;28;20028;-77
2023/09/22 04:55:48;;;;;;;12.63;7.68;;;;;;;;;;2102325;28;20036;-77
2023/09/22 04:57:09;;;;;;;17.38;7.72;;;;;;;;;;2095075;28;20400;-77
2023/09/22 04:58:30;;;;;;;15.15;7.57;;;;;;;;;;2093762;28;20059;-77
2023/09/22 04:59:53;;;;;;;16.67;8.10;;;;;;;;;;2095730;28;20036;-79
2023/09/22 05:01:15;;;;;;;10.13;8.13;;;;;;;;;;2089157;28;20037;-77
2023/09/22 05:02:35;;;;;;;11.32;7.50;;;;;;;;;;2095664;28;20029;-77
2023/09/22 05:03:56;;;;;;;13.60;7.63;;;;;;;;;;2095970;28;20029;-78
2023/09/22 05:05:19;;;;;;;11.30;7.25;;;;;;;;;;2101580;28;20403;-77
2023/09/22 05:06:43;;;;;;;;;;;;;;;;;;2099110;28;20396;-77
2023/09/22 05:08:05;;;;;;;17.55;8.65;;;;;;;;;;2101802;28;19916;-78
2023/09/22 05:09:26;;;;;;;;;;;;;;;;;;2094604;28;20516;-77
2023/09/22 05:10:49;;;;;;;10.45;7.90;;;;;;;;;;2098334;28;19912;-78
2023/09/22 05:12:10;;;;;;;12.65;7.45;;;;;;;;;;2096323;28;20411;-78
2023/09/22 05:13:31;;;;;;;16.95;8.80;;;;;;;;;;2094612;28;20031;-78
2023/09/22 05:14:52;;;;;;;14.38;7.97;;;;;;;;;;2095835;28;20040;-78
2023/09/22 05:16:13;;;;;;;15.07;8.10;;;;;;;;;;2094825;28;20033;-77
2023/09/22 05:17:34;;;;;;;13.20;8.05;;;;;;;;;;2094463;28;20032;-78
2023/09/22 05:18:56;;;;;;;11.88;8.38;;;;;;;;;;2095609;28;20411;-77
2023/09/22 05:20:20;;;;;;;18.73;8.85;;;;;;;;;;2095905;28;20032;-77
2023/09/22 05:21:41;;;;;;;12.32;9.52;;;;;;;;;;2092310;28;20032;-77
2023/09/22 05:23:02;;;;;;;17.70;9.48;;;;;;;;;;2096069;28;20440;-77
2023/09/22 05:24:23;;;;;;;14.57;8.80;;;;;;;;;;2093026;28;20504;-77
2023/09/22 05:25:44;;;;;;;12.85;8.02;;;;;;;;;;2103724;28;20051;-77
2023/09/22 05:27:05;;;;;;;12.38;7.85;;;;;;;;;;2096577;28;20099;-77
2023/09/22 05:28:25;;;;;;;14.43;8.10;;;;;;;;;;2106816;28;20141;-77
2023/09/22 05:29:46;;;;;;;17.30;9.02;;;;;;;;;;2090316;28;20489;-78
2023/09/22 05:31:08;;;;;;;13.52;7.95;;;;;;;;;;2091161;28;20036;-78
2023/09/22 05:32:28;;;;;;;13.13;7.40;;;;;;;;;;2095003;28;20029;-77
2023/09/22 05:33:50;;;;;;;13.93;8.27;;;;;;;;;;2095562;28;20029;-77
2023/09/22 05:35:11;;;;;;;12.93;8.95;;;;;;;;;;2088285;28;20041;-77
2023/09/22 05:36:32;;;;;;;15.23;7.93;;;;;;;;;;2091351;28;20522;-77
2023/09/22 05:37:53;;;;;;;11.57;7.55;;;;;;;;;;2097354;28;20036;-77
2023/09/22 05:39:14;;;;;;;12.68;7.28;;;;;;;;;;2081214;28;20029;-77
2023/09/22 05:40:35;;;;;;;14.30;8.23;;;;;;;;;;2095679;28;20036;-78
2023/09/22 05:41:56;;;;;;;12.00;7.50;;;;;;;;;;2098055;28;20032;-78
2023/09/22 05:43:18;;;;;;;13.05;7.03;;;;;;;;;;2094089;28;20044;-77
2023/09/22 05:44:38;;;;;;;14.43;7.83;;;;;;;;;;2098107;28;20049;-78
2023/09/22 05:45:59;;;;;;;9.48;7.22;;;;;;;;;;2097365;28;20430;-76
2023/09/22 05:47:20;;;;;;;13.00;7.32;;;;;;;;;;2101628;28;20503;-76
2023/09/22 05:48:42;;;;;;;10.88;7.30;;;;;;;;;;2099013;28;20035;-77
2023/09/22 05:50:03;;;;;;;12.40;7.32;;;;;;;;;;2095251;28;20126;-78
2023/09/22 05:51:24;;;;;;;11.73;7.40;;;;;;;;;;2093501;28;20033;-77
2023/09/22 05:52:45;;;;;;;11.15;7.32;;;;;;;;;;2085628;28;20041;-78
2023/09/22 05:54:06;;;;;;;11.15;7.20;;;;;;;;;;2103066;28;20078;-76
2023/09/22 05:55:28;;;;;;;14.07;7.30;;;;;;;;;;2105741;28;20403;-77
2023/09/22 05:56:49;;;;;;;11.63;6.90;;;;;;;;;;2099511;28;20174;-77
2023/09/22 05:58:11;;;;;;;16.63;7.80;;;;;;;;;;2097335;28;20057;-77
2023/09/22 05:59:32;;;;;;;12.00;7.70;;;;;;;;;;2087713;28;20055;-77
2023/09/22 06:00:53;;;;;;;11.38;7.15;;;;;;;;;;2101671;28;20044;-76
2023/09/22 06:02:14;;;;;;;12.75;7.10;;;;;;;;;;2096787;28;20373;-75
2023/09/22 06:03:37;;;;;;;10.50;7.13;;;;;;;;;;2103035;28;20020;-77
2023/09/22 06:04:58;;;;;;;9.52;6.47;;;;;;;;;;2094386;28;20090;-74
2023/09/22 06:06:19;;;;;;;9.93;6.88;;;;;;;;;;2093349;28;20408;-76
2023/09/22 06:07:40;;;;;;;10.25;6.32;;;;;;;;;;2096348;28;20040;-79
2023/09/22 06:09:01;;;;;;;11.82;6.35;;;;;;;;;;2096439;28;20381;-75
2023/09/22 06:10:23;;;;;;;10.40;6.53;;;;;;;;;;2096909;28;20033;-77
2023/09/22 06:11:43;;;;;;;10.52;6.10;;;;;;;;;;2095603;28;20496;-75
2023/09/22 06:13:05;;;;;;;11.40;6.35;;;;;;;;;;2093482;28;20511;-76
2023/09/22 06:14:26;;;;;;;10.38;7.05;;;;;;;;;;2091613;28;20033;-76
2023/09/22 06:15:47;;;;;;;13.50;7.50;;;;;;;;;;2097010;28;20471;-77
2023/09/22 06:17:08;;;;;;;9.60;6.40;;;;;;;;;;2110758;28;20032;-77
2023/09/22 06:18:29;;;;;;;13.70;7.25;;;;;;;;;;2099749;28;20024;-76
2023/09/22 06:19:50;;;;;;;14.77;7.73;;;;;;;;;;2090676;28;20033;-76
2023/09/22 06:21:11;;;;;;;12.70;6.10;;;;;;;;;;2101340;28;20441;-76
2023/09/22 06:22:33;;;;;;;10.27;6.47;;;;;;;;;;2093935;28;20036;-76
2023/09/22 06:23:54;;;;;;;10.90;6.53;;;;;;;;;;2096050;28;20108;-76
2023/09/22 06:25:15;;;;;;;8.52;5.80;;;;;;;;;;2098232;28;20040;-76
2023/09/22 06:26:36;;;;;;;13.13;6.80;;;;;;;;;;2097286;28;20078;-76
2023/09/22 06:27:56;;;;;;;9.40;6.30;;;;;;;;;;2097925;28;20043;-78
2023/09/22 06:29:18;;;;;;;12.13;6.40;;;;;;;;;;2089945;28;20507;-78
2023/09/22 06:30:40;;;;;;;11.93;7.20;;;;;;;;;;2095611;28;20052;-77
2023/09/22 06:32:02;;;;;;;11.48;5.95;;;;;;;;;;2099389;28;20029;-77
2023/09/22 06:33:23;;;;;;;9.10;5.43;;;;;;;;;;2094908;28;20141;-77
2023/09/22 06:34:43;;;;;;;12.18;6.30;;;;;;;;;;2093910;28;20062;-77
2023/09/22 06:36:05;;;;;;;9.48;6.60;;;;;;;;;;2097091;28;20048;-77
2023/09/22 06:37:26;;;;;;;8.70;5.85;;;;;;;;;;2097177;28;20044;-78
2023/09/22 06:38:47;;;;;;;9.93;7.50;;;;;;;;;;2094957;28;20507;-77
2023/09/22 06:40:11;;;;;;;10.85;6.20;;;;;;;;;;2085352;28;20041;-77
2023/09/22 06:41:32;;;;;;;10.75;6.78;;;;;;;;;;2098407;28;20055;-78
2023/09/22 06:42:53;;;;;;;10.83;6.70;;;;;;;;;;2096950;28;20044;-77
2023/09/22 06:44:16;;;;;;;9.25;5.93;;;;;;;;;;2093836;28;20111;-77
2023/09/22 06:45:38;;;;;;;11.38;6.60;;;;;;;;;;2094743;28;20024;-77
2023/09/22 06:47:00;;;;;;;9.20;6.78;;;;;;;;;;2096348;28;20032;-77
2023/09/22 06:48:22;;;;;;;9.55;6.22;;;;;;;;;;2095219;28;20029;-76
2023/09/22 06:49:43;;;;;;;;;;;;;;;;;;2086633;28;20025;-78
2023/09/22 06:51:04;;;;;;;7.95;5.80;;;;;;;;;;2091344;28;20269;-76
2023/09/22 06:52:25;;;;;;;9.80;7.22;;;;;;;;;;2096543;28;20063;-76
2023/09/22 06:53:47;;;;;;;12.60;6.15;;;;;;;;;;2097453;28;20032;-77
2023/09/22 06:55:09;;;;;;;9.43;6.55;;;;;;;;;;2096405;28;20489;-77
2023/09/22 06:56:32;;;;;;;13.75;7.32;;;;;;;;;;2091426;28;20020;-78
2023/09/22 06:57:53;;;;;;;13.35;7.65;;;;;;;;;;2097310;28;20036;-77
2023/09/22 06:59:14;;;;;;;11.02;6.10;;;;;;;;;;2090094;28;20496;-78
2023/09/22 07:00:34;;;;;;;9.38;7.05;;;;;;;;;;2094113;28;20040;-74
2023/09/22 07:01:55;;;;;;;9.73;7.07;;;;;;;;;;2096152;28;20036;-77
2023/09/22 07:03:16;;;;;;;11.63;6.65;;;;;;;;;;2094978;28;20035;-78
2023/09/22 07:04:37;;;;;;;12.13;7.82;;;;;;;;;;2095120;28;20036;-77
2023/09/22 07:05:59;;;;;;;9.68;7.00;;;;;;;;;;2096294;28;20032;-75
2023/09/22 07:07:20;;;;;;;11.15;6.43;;;;;;;;;;2093945;28;20044;-76
2023/09/22 07:08:41;;;;;;;9.52;6.63;;;;;;;;;;2095285;28;20037;-77
2023/09/22 07:10:03;;;;;;;8.63;6.30;;;;;;;;;;2093509;28;20190;-74
2023/09/22 07:11:24;;;;;;;12.90;6.05;;;;;;;;;;2096223;28;20400;-73
2023/09/22 07:12:48;;;;;;;7.95;5.30;;;;;;;;;;2096774;28;20059;-77
2023/09/22 07:14:09;;;;;;;7.65;5.20;;;;;;;;;;2091772;28;20024;-76
2023/09/22 07:15:29;;;;;;;9.73;5.57;;;;;;;;;;2097035;28;20071;-76
2023/09/22 07:16:50;;;;;;;11.75;5.82;;;;;;;;;;2097203;28;20035;-75
2023/09/22 07:18:11;;;;;;;7.20;4.68;;;;;;;;;;2095692;28;20548;-75
2023/09/22 07:19:34;;;;;;;7.47;4.63;;;;;;;;;;2087308;28;20044;-74
2023/09/22 07:20:55;;;;;;;11.43;5.43;;;;;;;;;;2096410;28;20040;-74
2023/09/22 07:22:16;;;;;;;8.93;4.80;;;;;;;;;;2094558;28;20113;-74
2023/09/22 07:23:37;;;;;;;10.88;4.65;;;;;;;;;;2096124;28;20025;-74
2023/09/22 07:24:58;;;;;;;6.47;4.55;;;;;;;;;;2088560;28;20036;-73
2023/09/22 07:26:19;;;;;;;7.77;4.03;;;;;;;;;;2088320;28;20029;-74
2023/09/22 07:27:42;;;;;;;16.90;5.95;;;;;;;;;;2095153;28;20025;-72
2023/09/22 07:29:03;;;;;;;11.65;5.40;;;;;;;;;;2094365;28;20029;-78
2023/09/22 07:30:24;;;;;;;9.05;5.05;;;;;;;;;;2093407;28;20040;-74
2023/09/22 07:31:45;;;;;;;7.32;4.55;;;;;;;;;;2094469;28;20047;-73
2023/09/22 07:33:06;;;;;;;8.27;3.80;;;;;;;;;;2096080;28;20029;-75
2023/09/22 07:34:28;;;;;;;7.05;3.80;;;;;;;;;;2108865;28;20028;-74
2023/09/22 07:35:49;;;;;;;5.85;3.22;;;;;;;;;;2096314;28;20516;-74
2023/09/22 07:37:11;;;;;;;6.20;3.35;;;;;;;;;;2095835;28;20480;-74
2023/09/22 07:38:32;;;;;;;6.75;3.08;;;;;;;;;;2095162;28;20020;-75
2023/09/22 07:39:54;;;;;;;6.68;2.83;;;;;;;;;;2109014;28;20027;-77
2023/09/22 07:41:14;;;;;;;9.88;3.33;;;;;;;;;;2100852;28;20024;-78
2023/09/22 07:42:37;;;;;;;9.90;3.80;;;;;;;;;;2096217;28;20020;-78
2023/09/22 07:43:58;;;;;;;7.45;3.38;;;;;;;;;;2096784;28;20082;-77
2023/09/22 07:45:19;;;;;;;9.90;2.97;;;;;;;;;;2090568;28;20373;-77
2023/09/22 07:46:41;;;;;;;8.23;3.00;;;;;;;;;;2093129;28;20366;-78
2023/09/22 07:48:02;;;;;;;5.22;2.90;;;;;;;;;;2096525;28;20024;-79
2023/09/22 07:49:23;;;;;;;6.22;3.38;;;;;;;;;;2096628;28;20067;-76
2023/09/22 07:50:44;;;;;;;6.95;2.90;;;;;;;;;;2095078;28;20035;-75
2023/09/22 07:52:09;;;;;;;5.25;2.58;;;;;;;;;;2092028;28;20408;-75
2023/09/22 07:53:30;;;;;;;9.90;3.92;;;;;;;;;;2095210;28;20036;-75
2023/09/22 07:54:52;;;;;;;6.40;2.78;;;;;;;;;;2098900;28;20408;-75
2023/09/22 07:56:16;;;;;;;;;;;;;;;;;;2094947;28;20500;-75
2023/09/22 07:57:37;;;;;;;5.40;2.75;;;;;;;;;;2096033;28;20706;-75
2023/09/22 07:58:58;;;;;;;4.35;3.05;;;;;;;;;;2095915;28;20028;-74
2023/09/22 08:00:19;;;;;;;5.28;2.97;;;;;;;;;;2096964;28;20037;-74